TAP91HL LPPT-LPMA
Flight info
| Callsign | TAP91HL |
|---|---|
| Flight time | 1h 31m |
| Altitude | 35000 |
| Route | ULVOT DCT GALPA DCT RAKUN |
| Aircraft | A320/M-SDE3FGHIJ1RWXYZ/LB1 |
Departure
| Time | 2026-05-05 15:02 |
|---|---|
| Airport | Lisbon Humberto Delgado Airport (LPPT) |
Arrival
| Time | 2026-05-05 16:33 |
|---|---|
| Airport | Cristiano Ronaldo International Airport (LPMA) |
| Time | Latitude | Longitude | Altitude | Speed | Heading |
|---|---|---|---|---|---|
| 2026-05-05 14:39 | 38.77161 | -9.13122 | 333 ft | 0 kts | 79° |
| 2026-05-05 14:53 | 38.77161 | -9.13123 | 337 ft | 2 kts | 79° |
| 2026-05-05 14:54 | 38.77155 | -9.13154 | 335 ft | 4 kts | 74° |
| 2026-05-05 14:54 | 38.77146 | -9.13186 | 333 ft | 4 kts | 56° |
| 2026-05-05 14:54 | 38.77130 | -9.13205 | 335 ft | 4 kts | 357° |
| 2026-05-05 14:54 | 38.77125 | -9.13205 | 336 ft | 0 kts | 349° |
| 2026-05-05 14:56 | 38.77126 | -9.13205 | 335 ft | 1 kts | 349° |
| 2026-05-05 14:57 | 38.77138 | -9.13208 | 333 ft | 3 kts | 349° |
| 2026-05-05 14:57 | 38.77193 | -9.13222 | 338 ft | 14 kts | 347° |
| 2026-05-05 14:57 | 38.77312 | -9.13263 | 335 ft | 17 kts | 322° |
| 2026-05-05 14:57 | 38.77314 | -9.13394 | 346 ft | 15 kts | 258° |
| 2026-05-05 14:58 | 38.77293 | -9.13516 | 349 ft | 13 kts | 258° |
| 2026-05-05 14:58 | 38.77276 | -9.13622 | 353 ft | 11 kts | 258° |
| 2026-05-05 14:58 | 38.77260 | -9.13720 | 360 ft | 11 kts | 258° |
| 2026-05-05 14:58 | 38.77241 | -9.13825 | 353 ft | 13 kts | 252° |
| 2026-05-05 14:59 | 38.77170 | -9.13878 | 355 ft | 12 kts | 203° |
| 2026-05-05 14:59 | 38.77072 | -9.13929 | 353 ft | 21 kts | 201° |
| 2026-05-05 14:59 | 38.76909 | -9.14018 | 354 ft | 28 kts | 204° |
| 2026-05-05 14:59 | 38.76723 | -9.14117 | 351 ft | 28 kts | 202° |
| 2026-05-05 15:00 | 38.76612 | -9.14177 | 337 ft | 12 kts | 204° |
| 2026-05-05 15:00 | 38.76592 | -9.14232 | 338 ft | 11 kts | 291° |
| 2026-05-05 15:00 | 38.76650 | -9.14373 | 335 ft | 14 kts | 330° |
| 2026-05-05 15:00 | 38.76693 | -9.14363 | 334 ft | 0 kts | 22° |
| 2026-05-05 15:01 | 38.76693 | -9.14362 | 334 ft | 0 kts | 22° |
| 2026-05-05 15:01 | 38.76915 | -9.14244 | 348 ft | 70 kts | 22° |
| 2026-05-05 15:01 | 38.77544 | -9.13908 | 366 ft | 125 kts | 23° |
| 2026-05-05 15:01 | 38.78479 | -9.13411 | 409 ft | 164 kts | 19° |
| 2026-05-05 15:02 | 38.79521 | -9.12841 | 1039 ft | 162 kts | 17° |
| 2026-05-05 15:02 | 38.80562 | -9.12285 | 1705 ft | 163 kts | 13° |
| 2026-05-05 15:02 | 38.81623 | -9.11715 | 2242 ft | 173 kts | 19° |
| 2026-05-05 15:02 | 38.82754 | -9.10890 | 2410 ft | 201 kts | 25° |
| 2026-05-05 15:03 | 38.84026 | -9.09928 | 2709 ft | 224 kts | 20° |
| 2026-05-05 15:03 | 38.85579 | -9.09512 | 3148 ft | 236 kts | 352° |
| 2026-05-05 15:03 | 38.87129 | -9.10262 | 3807 ft | 246 kts | 321° |
| 2026-05-05 15:03 | 38.88129 | -9.12048 | 4546 ft | 256 kts | 288° |
| 2026-05-05 15:04 | 38.88135 | -9.14346 | 5342 ft | 267 kts | 254° |
| 2026-05-05 15:04 | 38.87152 | -9.16404 | 6164 ft | 275 kts | 234° |
| 2026-05-05 15:04 | 38.85875 | -9.18257 | 6983 ft | 279 kts | 230° |
| 2026-05-05 15:04 | 38.84523 | -9.20072 | 7716 ft | 285 kts | 230° |
| 2026-05-05 15:05 | 38.81729 | -9.23760 | 9331 ft | 291 kts | 230° |
| 2026-05-05 15:05 | 38.80323 | -9.25648 | 10091 ft | 295 kts | 231° |
| 2026-05-05 15:05 | 38.78888 | -9.27603 | 10520 ft | 311 kts | 230° |
| 2026-05-05 15:06 | 38.77359 | -9.29712 | 10723 ft | 333 kts | 231° |
| 2026-05-05 15:06 | 38.75762 | -9.31922 | 11261 ft | 342 kts | 231° |
| 2026-05-05 15:06 | 38.74133 | -9.34167 | 11967 ft | 345 kts | 230° |
| 2026-05-05 15:06 | 38.72491 | -9.36422 | 12688 ft | 348 kts | 230° |
| 2026-05-05 15:07 | 38.70834 | -9.38691 | 13402 ft | 350 kts | 230° |
| 2026-05-05 15:07 | 38.69160 | -9.40980 | 14094 ft | 353 kts | 231° |
| 2026-05-05 15:07 | 38.67481 | -9.43284 | 14718 ft | 355 kts | 230° |
| 2026-05-05 15:07 | 38.65790 | -9.45606 | 15350 ft | 357 kts | 230° |
| 2026-05-05 15:08 | 38.64090 | -9.47939 | 15959 ft | 360 kts | 230° |
| 2026-05-05 15:08 | 38.62376 | -9.50286 | 16583 ft | 362 kts | 230° |
| 2026-05-05 15:08 | 38.60651 | -9.52643 | 17211 ft | 364 kts | 230° |
| 2026-05-05 15:08 | 38.58915 | -9.55014 | 17829 ft | 366 kts | 230° |
| 2026-05-05 15:09 | 38.57168 | -9.57399 | 18436 ft | 368 kts | 230° |
| 2026-05-05 15:09 | 38.55435 | -9.59765 | 18954 ft | 371 kts | 230° |
| 2026-05-05 15:09 | 38.53668 | -9.62178 | 19480 ft | 373 kts | 230° |
| 2026-05-05 15:09 | 38.51890 | -9.64606 | 20005 ft | 375 kts | 230° |
| 2026-05-05 15:10 | 38.50101 | -9.67046 | 20528 ft | 378 kts | 230° |
| 2026-05-05 15:10 | 38.48299 | -9.69503 | 21055 ft | 380 kts | 229° |
| 2026-05-05 15:10 | 38.46488 | -9.71969 | 21585 ft | 382 kts | 229° |
| 2026-05-05 15:10 | 38.44666 | -9.74448 | 22108 ft | 384 kts | 229° |
| 2026-05-05 15:11 | 38.42829 | -9.76942 | 22621 ft | 387 kts | 229° |
| 2026-05-05 15:11 | 38.40983 | -9.79446 | 23120 ft | 389 kts | 229° |
| 2026-05-05 15:11 | 38.39123 | -9.81967 | 23608 ft | 391 kts | 229° |
| 2026-05-05 15:11 | 38.37254 | -9.84498 | 24021 ft | 393 kts | 229° |
| 2026-05-05 15:12 | 38.35377 | -9.87039 | 24438 ft | 394 kts | 230° |
| 2026-05-05 15:12 | 38.33496 | -9.89584 | 24859 ft | 395 kts | 230° |
| 2026-05-05 15:12 | 38.31613 | -9.92130 | 25276 ft | 395 kts | 230° |
| 2026-05-05 15:12 | 38.29725 | -9.94681 | 25687 ft | 396 kts | 230° |
| 2026-05-05 15:13 | 38.27833 | -9.97233 | 26090 ft | 397 kts | 230° |
| 2026-05-05 15:13 | 38.25935 | -9.99788 | 26487 ft | 397 kts | 230° |
| 2026-05-05 15:13 | 38.24037 | -10.02342 | 26876 ft | 398 kts | 230° |
| 2026-05-05 15:13 | 38.22136 | -10.04901 | 27252 ft | 399 kts | 230° |
| 2026-05-05 15:14 | 38.20230 | -10.07468 | 27618 ft | 399 kts | 230° |
| 2026-05-05 15:14 | 38.18321 | -10.10037 | 27985 ft | 400 kts | 230° |
| 2026-05-05 15:14 | 38.16406 | -10.12612 | 28346 ft | 401 kts | 230° |
| 2026-05-05 15:14 | 38.14490 | -10.15186 | 28694 ft | 402 kts | 230° |
| 2026-05-05 15:15 | 38.12563 | -10.17768 | 29043 ft | 403 kts | 230° |
| 2026-05-05 15:15 | 38.10633 | -10.20347 | 29375 ft | 404 kts | 230° |
| 2026-05-05 15:15 | 38.08721 | -10.22898 | 29677 ft | 405 kts | 230° |
| 2026-05-05 15:15 | 38.06780 | -10.25490 | 29983 ft | 406 kts | 230° |
| 2026-05-05 15:16 | 38.04836 | -10.28088 | 30272 ft | 406 kts | 230° |
| 2026-05-05 15:16 | 38.02887 | -10.30692 | 30509 ft | 407 kts | 230° |
| 2026-05-05 15:16 | 38.00933 | -10.33301 | 30733 ft | 409 kts | 230° |
| 2026-05-05 15:16 | 37.98972 | -10.35917 | 30947 ft | 410 kts | 230° |
| 2026-05-05 15:17 | 37.97005 | -10.38537 | 31185 ft | 410 kts | 230° |
| 2026-05-05 15:17 | 37.95040 | -10.41151 | 31501 ft | 409 kts | 230° |
| 2026-05-05 15:17 | 37.93081 | -10.43751 | 31809 ft | 408 kts | 230° |
| 2026-05-05 15:17 | 37.91125 | -10.46345 | 32117 ft | 407 kts | 230° |
| 2026-05-05 15:18 | 37.89175 | -10.48935 | 32412 ft | 406 kts | 230° |
| 2026-05-05 15:18 | 37.87233 | -10.51515 | 32706 ft | 405 kts | 230° |
| 2026-05-05 15:18 | 37.85291 | -10.54089 | 33000 ft | 404 kts | 230° |
| 2026-05-05 15:18 | 37.83353 | -10.56654 | 33294 ft | 403 kts | 230° |
| 2026-05-05 15:19 | 37.81418 | -10.59210 | 33570 ft | 402 kts | 230° |
| 2026-05-05 15:19 | 37.79482 | -10.61765 | 33844 ft | 402 kts | 230° |
| 2026-05-05 15:19 | 37.77550 | -10.64315 | 34126 ft | 401 kts | 230° |
| 2026-05-05 15:19 | 37.75623 | -10.66861 | 34366 ft | 401 kts | 230° |
| 2026-05-05 15:20 | 37.73697 | -10.69404 | 34585 ft | 401 kts | 230° |
| 2026-05-05 15:20 | 37.71768 | -10.71948 | 34793 ft | 401 kts | 230° |
| 2026-05-05 15:20 | 37.69839 | -10.74490 | 34980 ft | 401 kts | 230° |
| 2026-05-05 15:20 | 37.67909 | -10.77036 | 35120 ft | 402 kts | 230° |
| 2026-05-05 15:21 | 37.65986 | -10.79571 | 35146 ft | 399 kts | 230° |
| 2026-05-05 15:21 | 37.62152 | -10.84610 | 35147 ft | 397 kts | 230° |
| 2026-05-05 15:22 | 37.58323 | -10.89631 | 35152 ft | 397 kts | 229° |
| 2026-05-05 15:22 | 37.54488 | -10.94644 | 35149 ft | 397 kts | 229° |
| 2026-05-05 15:23 | 37.50643 | -10.99655 | 35147 ft | 398 kts | 229° |
| 2026-05-05 15:23 | 37.46800 | -11.04669 | 35153 ft | 398 kts | 229° |
| 2026-05-05 15:24 | 37.42957 | -11.09680 | 35137 ft | 398 kts | 229° |
| 2026-05-05 15:24 | 37.39102 | -11.14695 | 35135 ft | 399 kts | 229° |
| 2026-05-05 15:25 | 37.35263 | -11.19677 | 35141 ft | 400 kts | 229° |
| 2026-05-05 15:25 | 37.31366 | -11.24730 | 35143 ft | 400 kts | 229° |
| 2026-05-05 15:26 | 37.27514 | -11.29715 | 35140 ft | 400 kts | 229° |
| 2026-05-05 15:26 | 37.23631 | -11.34730 | 35147 ft | 401 kts | 229° |
| 2026-05-05 15:27 | 37.19748 | -11.39743 | 35151 ft | 401 kts | 229° |
| 2026-05-05 15:27 | 37.15861 | -11.44752 | 35130 ft | 401 kts | 228° |
| 2026-05-05 15:28 | 37.11959 | -11.49760 | 35130 ft | 402 kts | 229° |
| 2026-05-05 15:28 | 37.08056 | -11.54783 | 35135 ft | 403 kts | 229° |
| 2026-05-05 15:29 | 37.04141 | -11.59805 | 35139 ft | 403 kts | 228° |
| 2026-05-05 15:29 | 37.00218 | -11.64826 | 35148 ft | 403 kts | 229° |
| 2026-05-05 15:30 | 36.96294 | -11.69843 | 35146 ft | 404 kts | 228° |
| 2026-05-05 15:30 | 36.92364 | -11.74858 | 35153 ft | 404 kts | 228° |
| 2026-05-05 15:31 | 36.88430 | -11.79864 | 35142 ft | 404 kts | 228° |
| 2026-05-05 15:31 | 36.84493 | -11.84870 | 35140 ft | 404 kts | 228° |
| 2026-05-05 15:32 | 36.80550 | -11.89880 | 35150 ft | 405 kts | 228° |
| 2026-05-05 15:32 | 36.77269 | -11.94036 | 35153 ft | 405 kts | 228° |
| 2026-05-05 15:33 | 36.73319 | -11.99040 | 35153 ft | 405 kts | 228° |
| 2026-05-05 15:33 | 36.69367 | -12.04039 | 35153 ft | 405 kts | 228° |
| 2026-05-05 15:34 | 36.65411 | -12.09033 | 35161 ft | 405 kts | 228° |
| 2026-05-05 15:34 | 36.61465 | -12.14023 | 35165 ft | 404 kts | 228° |
| 2026-05-05 15:35 | 36.57509 | -12.19006 | 35155 ft | 405 kts | 228° |
| 2026-05-05 15:35 | 36.52881 | -12.24816 | 35160 ft | 405 kts | 228° |
| 2026-05-05 15:36 | 36.49588 | -12.28945 | 35165 ft | 405 kts | 228° |
| 2026-05-05 15:36 | 36.45623 | -12.33908 | 35167 ft | 405 kts | 228° |
| 2026-05-05 15:37 | 36.41662 | -12.38871 | 35167 ft | 405 kts | 228° |
| 2026-05-05 15:37 | 36.37696 | -12.43825 | 35168 ft | 404 kts | 228° |
| 2026-05-05 15:38 | 36.33737 | -12.48769 | 35173 ft | 404 kts | 228° |
| 2026-05-05 15:38 | 36.29775 | -12.53704 | 35165 ft | 404 kts | 228° |
| 2026-05-05 15:39 | 36.25812 | -12.58633 | 35161 ft | 404 kts | 228° |
| 2026-05-05 15:39 | 36.21871 | -12.63524 | 35165 ft | 404 kts | 228° |
| 2026-05-05 15:40 | 36.17899 | -12.68443 | 35167 ft | 404 kts | 228° |
| 2026-05-05 15:40 | 36.13928 | -12.73354 | 35165 ft | 404 kts | 228° |
| 2026-05-05 15:41 | 36.09954 | -12.78261 | 35168 ft | 404 kts | 228° |
| 2026-05-05 15:41 | 36.05980 | -12.83161 | 35171 ft | 403 kts | 228° |
| 2026-05-05 15:42 | 36.02006 | -12.88058 | 35161 ft | 403 kts | 227° |
| 2026-05-05 15:42 | 35.98038 | -12.92940 | 35170 ft | 403 kts | 227° |
| 2026-05-05 15:43 | 35.94070 | -12.97813 | 35171 ft | 402 kts | 227° |
| 2026-05-05 15:43 | 35.90103 | -13.02683 | 35172 ft | 402 kts | 227° |
| 2026-05-05 15:44 | 35.86138 | -13.07543 | 35172 ft | 402 kts | 227° |
| 2026-05-05 15:44 | 35.82170 | -13.12404 | 35172 ft | 402 kts | 227° |
| 2026-05-05 15:45 | 35.78197 | -13.17247 | 35174 ft | 402 kts | 227° |
| 2026-05-05 15:45 | 35.74221 | -13.22087 | 35159 ft | 402 kts | 227° |
| 2026-05-05 15:46 | 35.70256 | -13.26928 | 35161 ft | 402 kts | 227° |
| 2026-05-05 15:46 | 35.66290 | -13.31766 | 35163 ft | 402 kts | 227° |
| 2026-05-05 15:47 | 35.62311 | -13.36594 | 35172 ft | 402 kts | 227° |
| 2026-05-05 15:47 | 35.58327 | -13.41404 | 35167 ft | 402 kts | 227° |
| 2026-05-05 15:48 | 35.54371 | -13.46186 | 35168 ft | 402 kts | 227° |
| 2026-05-05 15:48 | 35.50387 | -13.50993 | 35174 ft | 402 kts | 227° |
| 2026-05-05 15:49 | 35.46370 | -13.55792 | 35133 ft | 404 kts | 226° |
| 2026-05-05 15:49 | 35.42333 | -13.60626 | 35141 ft | 407 kts | 226° |
| 2026-05-05 15:50 | 35.38279 | -13.65477 | 35149 ft | 408 kts | 226° |
| 2026-05-05 15:50 | 35.34213 | -13.70341 | 35154 ft | 409 kts | 226° |
| 2026-05-05 15:51 | 35.30137 | -13.75210 | 35155 ft | 409 kts | 226° |
| 2026-05-05 15:51 | 35.26055 | -13.80083 | 35159 ft | 410 kts | 226° |
| 2026-05-05 15:52 | 35.21974 | -13.84949 | 35163 ft | 410 kts | 226° |
| 2026-05-05 15:52 | 35.17893 | -13.89824 | 35170 ft | 410 kts | 226° |
| 2026-05-05 15:53 | 35.13817 | -13.94697 | 35169 ft | 410 kts | 226° |
| 2026-05-05 15:53 | 35.09742 | -13.99564 | 35170 ft | 410 kts | 226° |
| 2026-05-05 15:54 | 35.05663 | -14.04429 | 35171 ft | 410 kts | 226° |
| 2026-05-05 15:54 | 35.01583 | -14.09290 | 35171 ft | 410 kts | 226° |
| 2026-05-05 15:55 | 34.97503 | -14.14144 | 35171 ft | 410 kts | 226° |
| 2026-05-05 15:55 | 34.93423 | -14.18997 | 35171 ft | 410 kts | 226° |
| 2026-05-05 15:56 | 34.89340 | -14.23845 | 35151 ft | 410 kts | 226° |
| 2026-05-05 15:56 | 34.85249 | -14.28700 | 35152 ft | 411 kts | 226° |
| 2026-05-05 15:57 | 34.81176 | -14.33526 | 35155 ft | 412 kts | 226° |
| 2026-05-05 15:57 | 34.77072 | -14.38385 | 35155 ft | 412 kts | 226° |
| 2026-05-05 15:58 | 34.72963 | -14.43244 | 35158 ft | 412 kts | 226° |
| 2026-05-05 15:58 | 34.68852 | -14.48101 | 35160 ft | 412 kts | 226° |
| 2026-05-05 15:59 | 34.64739 | -14.52955 | 35159 ft | 412 kts | 226° |
| 2026-05-05 15:59 | 34.60620 | -14.57805 | 35136 ft | 413 kts | 226° |
| 2026-05-05 16:00 | 34.56477 | -14.62641 | 35142 ft | 414 kts | 226° |
| 2026-05-05 16:00 | 34.51939 | -14.66913 | 35154 ft | 419 kts | 210° |
| 2026-05-05 16:00 | 34.49457 | -14.68709 | 35168 ft | 413 kts | 222° |
| 2026-05-05 16:01 | 34.47405 | -14.71107 | 35175 ft | 408 kts | 230° |
| 2026-05-05 16:01 | 34.43519 | -14.76126 | 35176 ft | 408 kts | 227° |
| 2026-05-05 16:02 | 34.39468 | -14.80950 | 35178 ft | 408 kts | 226° |
| 2026-05-05 16:02 | 34.35360 | -14.85700 | 35175 ft | 408 kts | 226° |
| 2026-05-05 16:03 | 34.31271 | -14.90462 | 35160 ft | 408 kts | 226° |
| 2026-05-05 16:03 | 34.27203 | -14.95250 | 35154 ft | 408 kts | 226° |
| 2026-05-05 16:04 | 34.23137 | -15.00027 | 35155 ft | 408 kts | 226° |
| 2026-05-05 16:04 | 34.19062 | -15.04793 | 35156 ft | 408 kts | 226° |
| 2026-05-05 16:05 | 34.14992 | -15.09557 | 35158 ft | 407 kts | 226° |
| 2026-05-05 16:05 | 34.10913 | -15.14316 | 34850 ft | 407 kts | 226° |
| 2026-05-05 16:05 | 34.08903 | -15.16656 | 34613 ft | 405 kts | 226° |
| 2026-05-05 16:06 | 34.06850 | -15.19043 | 34372 ft | 404 kts | 226° |
| 2026-05-05 16:06 | 34.04863 | -15.21352 | 34076 ft | 400 kts | 226° |
| 2026-05-05 16:06 | 34.02872 | -15.23668 | 33551 ft | 396 kts | 226° |
| 2026-05-05 16:06 | 34.00879 | -15.25989 | 33079 ft | 391 kts | 226° |
| 2026-05-05 16:07 | 33.98960 | -15.28221 | 32613 ft | 386 kts | 226° |
| 2026-05-05 16:07 | 33.97038 | -15.30458 | 32141 ft | 383 kts | 226° |
| 2026-05-05 16:07 | 33.95130 | -15.32675 | 31677 ft | 379 kts | 226° |
| 2026-05-05 16:07 | 33.93241 | -15.34869 | 31222 ft | 376 kts | 226° |
| 2026-05-05 16:08 | 33.91365 | -15.37049 | 30771 ft | 373 kts | 226° |
| 2026-05-05 16:08 | 33.89498 | -15.39210 | 30321 ft | 371 kts | 226° |
| 2026-05-05 16:08 | 33.87641 | -15.41353 | 29831 ft | 368 kts | 226° |
| 2026-05-05 16:08 | 33.85805 | -15.43475 | 29401 ft | 364 kts | 226° |
| 2026-05-05 16:09 | 33.83990 | -15.45576 | 28975 ft | 360 kts | 226° |
| 2026-05-05 16:09 | 33.82193 | -15.47655 | 28555 ft | 356 kts | 226° |
| 2026-05-05 16:09 | 33.80417 | -15.49706 | 28155 ft | 353 kts | 226° |
| 2026-05-05 16:09 | 33.78656 | -15.51740 | 27759 ft | 350 kts | 226° |
| 2026-05-05 16:10 | 33.76906 | -15.53760 | 27368 ft | 347 kts | 226° |
| 2026-05-05 16:10 | 33.75170 | -15.55762 | 26986 ft | 344 kts | 226° |
| 2026-05-05 16:10 | 33.73453 | -15.57735 | 26588 ft | 340 kts | 226° |
| 2026-05-05 16:10 | 33.71755 | -15.59683 | 26224 ft | 335 kts | 226° |
| 2026-05-05 16:11 | 33.70079 | -15.61612 | 25846 ft | 332 kts | 226° |
| 2026-05-05 16:11 | 33.65136 | -15.67303 | 24692 ft | 325 kts | 226° |
| 2026-05-05 16:12 | 33.63508 | -15.69178 | 24295 ft | 324 kts | 226° |
| 2026-05-05 16:12 | 33.60286 | -15.72875 | 23452 ft | 322 kts | 226° |
| 2026-05-05 16:13 | 33.55476 | -15.78371 | 22239 ft | 316 kts | 226° |
| 2026-05-05 16:13 | 33.53902 | -15.80196 | 21839 ft | 314 kts | 227° |
| 2026-05-05 16:13 | 33.52345 | -15.82026 | 21438 ft | 313 kts | 227° |
| 2026-05-05 16:14 | 33.49260 | -15.85666 | 20658 ft | 310 kts | 227° |
| 2026-05-05 16:14 | 33.46194 | -15.89271 | 19889 ft | 308 kts | 227° |
| 2026-05-05 16:15 | 33.43143 | -15.92845 | 19127 ft | 306 kts | 227° |
| 2026-05-05 16:15 | 33.40092 | -15.96419 | 18368 ft | 308 kts | 227° |
| 2026-05-05 16:16 | 33.37040 | -15.99986 | 17584 ft | 305 kts | 227° |
| 2026-05-05 16:16 | 33.34012 | -16.03514 | 16858 ft | 304 kts | 227° |
| 2026-05-05 16:17 | 33.30974 | -16.07043 | 16136 ft | 305 kts | 226° |
| 2026-05-05 16:17 | 33.29450 | -16.08814 | 15775 ft | 305 kts | 227° |
| 2026-05-05 16:18 | 33.26450 | -16.12306 | 15064 ft | 302 kts | 226° |
| 2026-05-05 16:18 | 33.24946 | -16.14060 | 14706 ft | 303 kts | 226° |
| 2026-05-05 16:18 | 33.21911 | -16.17591 | 13984 ft | 304 kts | 226° |
| 2026-05-05 16:19 | 33.20399 | -16.19348 | 13594 ft | 302 kts | 226° |
| 2026-05-05 16:19 | 33.18899 | -16.21088 | 13233 ft | 299 kts | 225° |
| 2026-05-05 16:19 | 33.15940 | -16.24522 | 12520 ft | 294 kts | 227° |
| 2026-05-05 16:20 | 33.13029 | -16.27888 | 11809 ft | 289 kts | 225° |
| 2026-05-05 16:20 | 33.10157 | -16.31206 | 11108 ft | 286 kts | 225° |
| 2026-05-05 16:21 | 33.07315 | -16.34491 | 10391 ft | 284 kts | 225° |
| 2026-05-05 16:22 | 33.03091 | -16.39373 | 9262 ft | 279 kts | 224° |
| 2026-05-05 16:22 | 33.00322 | -16.42569 | 8520 ft | 275 kts | 224° |
| 2026-05-05 16:23 | 32.98034 | -16.45206 | 7897 ft | 278 kts | 224° |
| 2026-05-05 16:23 | 32.96640 | -16.46812 | 7509 ft | 280 kts | 224° |
| 2026-05-05 16:23 | 32.93858 | -16.50012 | 6717 ft | 273 kts | 224° |
| 2026-05-05 16:24 | 32.92491 | -16.51577 | 6312 ft | 273 kts | 223° |
| 2026-05-05 16:24 | 32.91103 | -16.53100 | 5896 ft | 267 kts | 221° |
| 2026-05-05 16:24 | 32.88437 | -16.55933 | 5241 ft | 244 kts | 220° |
| 2026-05-05 16:25 | 32.87203 | -16.57238 | 5154 ft | 237 kts | 221° |
| 2026-05-05 16:25 | 32.84701 | -16.59731 | 4860 ft | 236 kts | 213° |
| 2026-05-05 16:25 | 32.83357 | -16.60840 | 4507 ft | 234 kts | 214° |
| 2026-05-05 16:26 | 32.80791 | -16.62964 | 3871 ft | 214 kts | 211° |
| 2026-05-05 16:26 | 32.78422 | -16.64922 | 3311 ft | 208 kts | 210° |
| 2026-05-05 16:27 | 32.77228 | -16.65904 | 3010 ft | 209 kts | 210° |
| 2026-05-05 16:27 | 32.76039 | -16.66886 | 2672 ft | 207 kts | 208° |
| 2026-05-05 16:27 | 32.74876 | -16.67847 | 2248 ft | 198 kts | 209° |
| 2026-05-05 16:27 | 32.73780 | -16.68755 | 1905 ft | 188 kts | 211° |
| 2026-05-05 16:28 | 32.72727 | -16.69625 | 1584 ft | 178 kts | 210° |
| 2026-05-05 16:28 | 32.71726 | -16.70455 | 1266 ft | 170 kts | 213° |
| 2026-05-05 16:28 | 32.70793 | -16.71226 | 958 ft | 163 kts | 213° |
| 2026-05-05 16:28 | 32.69851 | -16.72002 | 692 ft | 165 kts | 215° |
| 2026-05-05 16:29 | 32.68912 | -16.72773 | 425 ft | 160 kts | 214° |
| 2026-05-05 16:29 | 32.68009 | -16.73493 | 494 ft | 157 kts | 214° |
| 2026-05-05 16:29 | 32.67090 | -16.74216 | 710 ft | 158 kts | 213° |
| 2026-05-05 16:29 | 32.66166 | -16.74966 | 928 ft | 164 kts | 214° |
| 2026-05-05 16:30 | 32.65226 | -16.75749 | 1005 ft | 165 kts | 214° |
| 2026-05-05 16:30 | 32.64270 | -16.76490 | 1006 ft | 161 kts | 204° |
| 2026-05-05 16:30 | 32.63384 | -16.77327 | 933 ft | 165 kts | 233° |
| 2026-05-05 16:30 | 32.62865 | -16.78508 | 845 ft | 160 kts | 261° |
| 2026-05-05 16:31 | 32.62928 | -16.79748 | 848 ft | 146 kts | 304° |
| 2026-05-05 16:31 | 32.63612 | -16.80539 | 911 ft | 134 kts | 347° |
| 2026-05-05 16:31 | 32.64501 | -16.80693 | 788 ft | 130 kts | 5° |
| 2026-05-05 16:31 | 32.65401 | -16.80606 | 616 ft | 131 kts | 15° |
| 2026-05-05 16:32 | 32.66288 | -16.80327 | 555 ft | 132 kts | 19° |
| 2026-05-05 16:32 | 32.67136 | -16.79942 | 562 ft | 137 kts | 21° |
| 2026-05-05 16:32 | 32.67986 | -16.79465 | 485 ft | 138 kts | 30° |
| 2026-05-05 16:32 | 32.68690 | -16.78737 | 271 ft | 138 kts | 46° |
| 2026-05-05 16:33 | 32.69339 | -16.77973 | 174 ft | 131 kts | 43° |
| 2026-05-05 16:33 | 32.69863 | -16.77361 | 189 ft | 66 kts | 45° |
| 2026-05-05 16:33 | 32.69964 | -16.77196 | 188 ft | 12 kts | 122° |
| 2026-05-05 16:33 | 32.69894 | -16.77179 | 186 ft | 10 kts | 179° |
| 2026-05-05 16:34 | 32.69825 | -16.77197 | 182 ft | 10 kts | 217° |
| 2026-05-05 16:34 | 32.69774 | -16.77258 | 178 ft | 11 kts | 226° |
| 2026-05-05 16:34 | 32.69716 | -16.77330 | 171 ft | 13 kts | 225° |
| 2026-05-05 16:34 | 32.69656 | -16.77403 | 169 ft | 10 kts | 226° |
| 2026-05-05 16:35 | 32.69616 | -16.77452 | 169 ft | 6 kts | 226° |
| 2026-05-05 16:35 | 32.69565 | -16.77514 | 169 ft | 16 kts | 226° |
| 2026-05-05 16:35 | 32.69478 | -16.77623 | 169 ft | 17 kts | 226° |
| 2026-05-05 16:35 | 32.69418 | -16.77698 | 169 ft | 7 kts | 226° |
| 2026-05-05 16:36 | 32.69393 | -16.77699 | 169 ft | 3 kts | 152° |
| 2026-05-05 16:36 | 32.69363 | -16.77666 | 169 ft | 4 kts | 137° |
| 2026-05-05 16:36 | 32.69357 | -16.77660 | 169 ft | 0 kts | 137° |